createdAt,value
2023-02-18T00:01:44.330Z,99101.97
2023-02-18T00:04:12.846Z,99113.69
2023-02-18T00:06:42.138Z,99135.78
2023-02-18T00:09:10.816Z,99130.44
2023-02-18T00:11:39.944Z,99138.44
2023-02-18T00:14:10.403Z,99144.78
2023-02-18T00:16:38.743Z,99155.50
2023-02-18T00:19:12.514Z,99164.19
2023-02-18T00:21:40.740Z,99169.22
2023-02-18T00:24:10.317Z,99171.56
2023-02-18T00:26:42.020Z,99182.25
2023-02-18T00:29:10.389Z,99166.75
2023-02-18T00:31:40.661Z,99168.91
2023-02-18T00:34:12.837Z,99160.25
2023-02-18T00:36:41.835Z,99165.44
2023-02-18T00:39:12.794Z,99221.41
2023-02-18T00:41:41.449Z,99224.09
2023-02-18T00:44:09.909Z,99239.47
2023-02-18T00:46:39.307Z,99231.28
2023-02-18T00:49:07.892Z,99241.97
2023-02-18T00:51:38.014Z,99240.16
2023-02-18T00:54:06.334Z,99262.56
2023-02-18T00:56:34.730Z,99266.25
2023-02-18T00:59:03.030Z,99275.28
2023-02-18T01:01:32.665Z,99275.28
2023-02-18T01:04:01.629Z,99292.50
2023-02-18T01:06:30.427Z,99273.13
2023-02-18T01:09:00.026Z,99298.69
2023-02-18T01:11:28.439Z,99246.50
2023-02-18T01:13:56.703Z,99317.25
2023-02-18T01:16:25.900Z,99331.50
2023-02-18T01:18:54.452Z,99292.00
2023-02-18T01:21:22.817Z,99302.06
2023-02-18T01:23:51.258Z,99333.16
2023-02-18T01:26:21.173Z,99341.19
2023-02-18T01:28:50.278Z,99339.19
2023-02-18T01:31:19.046Z,99369.59
2023-02-18T01:33:48.321Z,99379.50
2023-02-18T01:36:17.214Z,99385.00
2023-02-18T01:38:45.406Z,99358.22
2023-02-18T01:41:13.843Z,99357.69
2023-02-18T01:43:44.120Z,99374.47
2023-02-18T01:46:18.135Z,99404.91
2023-02-18T01:48:50.651Z,99414.47
2023-02-18T01:51:24.492Z,99391.00
2023-02-18T01:53:57.556Z,99386.31
2023-02-18T01:56:30.738Z,99423.78
2023-02-18T01:59:03.475Z,99404.72
2023-02-18T02:01:34.091Z,99449.41
2023-02-18T02:04:02.540Z,99427.13
2023-02-18T02:06:30.989Z,99415.41
2023-02-18T02:09:06.078Z,99468.97
2023-02-18T02:11:56.730Z,99467.13
2023-02-18T02:14:42.769Z,99467.97
2023-02-18T02:17:18.709Z,99472.66
2023-02-18T02:20:19.261Z,99476.19
2023-02-18T02:23:32.177Z,99486.88
2023-02-18T02:26:29.638Z,99486.03
2023-02-18T02:29:30.498Z,99500.44
2023-02-18T02:32:29.882Z,99498.72
2023-02-18T02:35:05.331Z,99500.44
2023-02-18T02:37:43.767Z,99497.91
2023-02-18T02:40:22.108Z,99497.06
2023-02-18T02:43:06.379Z,99498.72
2023-02-18T02:45:46.106Z,99484.50
2023-02-18T02:48:30.153Z,99509.44
2023-02-18T02:51:09.732Z,99507.78
2023-02-18T02:53:41.261Z,99513.13
2023-02-18T02:56:14.899Z,99512.44
2023-02-18T02:58:43.754Z,99525.50
2023-02-18T03:01:30.693Z,99525.50
2023-02-18T03:04:28.508Z,99540.56
2023-02-18T03:07:08.666Z,99539.88
2023-02-18T03:09:50.722Z,99553.09
2023-02-18T03:12:25.935Z,99541.53
2023-02-18T03:15:01.383Z,99546.91
2023-02-18T03:17:32.995Z,99540.22
2023-02-18T03:20:09.471Z,99552.25
2023-02-18T03:22:43.411Z,99550.59
2023-02-18T03:25:13.334Z,99489.16
2023-02-18T03:27:47.692Z,99562.97
2023-02-18T03:30:18.928Z,99560.28
2023-02-18T03:32:49.162Z,99557.59
2023-02-18T03:35:19.882Z,99526.59
2023-02-18T03:37:54.323Z,99570.00
2023-02-18T03:40:22.506Z,99568.31
2023-02-18T03:42:50.554Z,99580.72
2023-02-18T03:45:18.677Z,99580.72
2023-02-18T03:47:47.334Z,99576.50
2023-02-18T03:50:15.662Z,99580.72
2023-02-18T03:52:43.711Z,99587.03
2023-02-18T03:55:13.313Z,99579.88
2023-02-18T03:57:41.405Z,99552.84
2023-02-18T04:00:11.748Z,99564.59
2023-02-18T04:02:39.860Z,99591.59
2023-02-18T04:05:08.656Z,99586.06
2023-02-18T04:07:36.767Z,99591.44
2023-02-18T04:10:05.448Z,99586.06
2023-02-18T04:12:35.089Z,99602.13
2023-02-18T04:15:03.163Z,99602.13
2023-02-18T04:17:31.284Z,99583.34
2023-02-18T04:19:59.560Z,99570.44
2023-02-18T04:22:27.771Z,99607.47
2023-02-18T04:24:56.055Z,99618.19
2023-02-18T04:27:25.284Z,99588.00
2023-02-18T04:29:55.189Z,99553.03
2023-02-18T04:32:23.270Z,99619.84
2023-02-18T04:34:51.346Z,99609.16
2023-02-18T04:37:19.492Z,99618.50
2023-02-18T04:39:47.605Z,99618.19
2023-02-18T04:42:15.724Z,99625.22
2023-02-18T04:44:45.213Z,99595.75
2023-02-18T04:47:16.612Z,99609.16
2023-02-18T04:49:44.820Z,99608.31
2023-02-18T04:52:12.877Z,99623.53
2023-02-18T04:54:41.107Z,99619.84
2023-02-18T04:57:09.214Z,99619.00
2023-02-18T04:59:37.368Z,99619.00
2023-02-18T05:02:06.099Z,99611.13
2023-02-18T05:04:35.658Z,99620.16
2023-02-18T05:07:03.723Z,99623.53
2023-02-18T05:09:31.809Z,99628.91
2023-02-18T05:11:59.887Z,99628.91
2023-02-18T05:14:27.952Z,99599.00
2023-02-18T05:16:56.099Z,99547.00
2023-02-18T05:19:24.247Z,99620.88
2023-02-18T05:21:53.761Z,99585.78
2023-02-18T05:24:21.877Z,99630.56
2023-02-18T05:26:49.978Z,99621.69
2023-02-18T05:29:18.097Z,99577.06
2023-02-18T05:31:46.323Z,99629.72
2023-02-18T05:34:14.513Z,99579.91
2023-02-18T05:36:42.615Z,99632.22
2023-02-18T05:39:12.437Z,99625.84
2023-02-18T05:41:40.554Z,99638.44
2023-02-18T05:44:26.238Z,99642.28
2023-02-18T05:46:54.617Z,99633.88
2023-02-18T05:49:23.125Z,99643.94
2023-02-18T05:51:51.253Z,99550.66
2023-02-18T05:54:20.809Z,99641.25
2023-02-18T05:56:49.173Z,99640.41
2023-02-18T05:59:17.317Z,99641.25
2023-02-18T06:01:46.137Z,99588.41
2023-02-18T06:04:14.353Z,99590.91
2023-02-18T06:06:42.948Z,99639.59
2023-02-18T06:09:11.807Z,99630.53
2023-02-18T06:11:41.648Z,99620.50
2023-02-18T06:14:09.934Z,99644.94
2023-02-18T06:16:38.104Z,99612.44
2023-02-18T06:19:06.394Z,99623.53
2023-02-18T06:21:34.487Z,99634.25
2023-02-18T06:24:02.661Z,99628.91
2023-02-18T06:26:30.786Z,99637.91
2023-02-18T06:29:00.245Z,99639.59
2023-02-18T06:31:28.623Z,99578.88
2023-02-18T06:33:56.815Z,99639.59
2023-02-18T06:36:24.937Z,99641.25
2023-02-18T06:38:54.169Z,99583.06
2023-02-18T06:41:22.287Z,99632.03
2023-02-18T06:43:50.430Z,99634.09
2023-02-18T06:46:20.069Z,99621.13
2023-02-18T06:48:48.370Z,99607.03
2023-02-18T06:51:17.616Z,99648.28
2023-02-18T06:53:46.896Z,99642.94
2023-02-18T06:56:18.946Z,99655.34
2023-02-18T06:58:47.314Z,99642.94
2023-02-18T07:01:18.822Z,99649.13
2023-02-18T07:03:50.261Z,99638.22
2023-02-18T07:06:19.553Z,99656.31
2023-02-18T07:08:48.346Z,99647.78
2023-02-18T07:11:17.254Z,99656.78
2023-02-18T07:13:45.698Z,99664.34
2023-02-18T07:16:14.704Z,99661.00
2023-02-18T07:18:43.249Z,99666.19
2023-02-18T07:21:13.305Z,99632.16
2023-02-18T07:23:41.603Z,99667.19
2023-02-18T07:26:11.889Z,99659.31
2023-02-18T07:28:40.829Z,99657.47
2023-02-18T07:31:10.077Z,99679.59
2023-02-18T07:33:39.098Z,99673.38
2023-02-18T07:36:08.849Z,99624.72
2023-02-18T07:38:38.526Z,99651.88
2023-02-18T07:41:07.044Z,99675.06
2023-02-18T07:43:35.754Z,99669.03
2023-02-18T07:46:07.803Z,99667.50
2023-02-18T07:48:37.532Z,99609.00
2023-02-18T07:51:08.750Z,99678.41
2023-02-18T07:53:38.784Z,99680.25
2023-02-18T07:56:08.409Z,99683.78
2023-02-18T07:58:41.728Z,99682.09
2023-02-18T08:01:13.059Z,99684.78
2023-02-18T08:03:41.539Z,99634.72
2023-02-18T08:06:10.770Z,99680.41
2023-02-18T08:08:40.676Z,99638.44
2023-02-18T08:11:18.807Z,99691.13
2023-02-18T08:13:47.474Z,99683.09
2023-02-18T08:16:15.802Z,99624.34
2023-02-18T08:18:44.090Z,99678.03
2023-02-18T08:21:13.387Z,99599.59
2023-02-18T08:23:42.899Z,99699.13
2023-02-18T08:26:12.065Z,99688.44
2023-02-18T08:28:40.848Z,99696.47
2023-02-18T08:31:10.909Z,99703.53
2023-02-18T08:33:39.400Z,99708.88
2023-02-18T08:36:11.250Z,99701.81
2023-02-18T08:38:39.709Z,99703.84
2023-02-18T08:41:10.729Z,99710.84
2023-02-18T08:43:40.310Z,99711.00
2023-02-18T08:46:16.114Z,99705.81
2023-02-18T08:48:48.131Z,99712.84
2023-02-18T08:51:18.490Z,99718.19
2023-02-18T08:53:47.476Z,99717.22
2023-02-18T08:56:18.416Z,99719.88
2023-02-18T08:58:47.119Z,99720.22
2023-02-18T09:01:15.476Z,99724.41
2023-02-18T09:03:43.990Z,99720.22
2023-02-18T09:06:12.803Z,99728.91
2023-02-18T09:08:44.313Z,99676.84
2023-02-18T09:11:13.300Z,99718.00
2023-02-18T09:13:43.056Z,99740.75
2023-02-18T09:16:15.107Z,99733.28
2023-02-18T09:18:43.370Z,99734.25
2023-02-18T09:21:14.623Z,99740.47
2023-02-18T09:23:47.079Z,99751.16
2023-02-18T09:26:17.886Z,99749.34
2023-02-18T09:28:49.355Z,99750.16
2023-02-18T09:31:20.600Z,99744.97
2023-02-18T09:33:50.718Z,99741.31
2023-02-18T09:36:21.027Z,99710.31
2023-02-18T09:38:49.617Z,99737.75
2023-02-18T09:41:29.294Z,99726.66
2023-02-18T09:44:04.026Z,99749.34
2023-02-18T09:46:37.357Z,99744.91
2023-02-18T09:49:15.020Z,99703.28
2023-02-18T09:51:45.884Z,99744.97
2023-02-18T09:54:18.566Z,99741.63
2023-02-18T09:56:48.501Z,99751.16
2023-02-18T09:59:21.243Z,99744.91
2023-02-18T10:01:53.251Z,99755.66
2023-02-18T10:04:24.368Z,99753.84
2023-02-18T10:06:54.322Z,99757.38
2023-02-18T10:09:27.008Z,99753.69
2023-02-18T10:11:59.192Z,99723.13
2023-02-18T10:14:30.212Z,99752.00
2023-02-18T10:17:00.993Z,99751.00
2023-02-18T10:19:35.149Z,99723.44
2023-02-18T10:22:06.208Z,99743.97
2023-02-18T10:24:37.369Z,99750.00
2023-02-18T10:27:07.350Z,99739.59
2023-02-18T10:29:38.169Z,99751.69
2023-02-18T10:32:14.424Z,99715.38
2023-02-18T10:34:44.481Z,99757.22
2023-02-18T10:37:42.726Z,99750.00
2023-02-18T10:40:22.596Z,99737.41
2023-02-18T10:43:05.169Z,99747.47
2023-02-18T10:45:44.431Z,99738.25
2023-02-18T10:48:36.087Z,99744.97
2023-02-18T10:51:15.267Z,99754.53
2023-02-18T10:53:47.823Z,99755.50
2023-02-18T10:56:36.250Z,99748.31
2023-02-18T10:59:13.965Z,99753.69
2023-02-18T11:01:45.813Z,99762.72
2023-02-18T11:04:18.077Z,99748.31
2023-02-18T11:06:55.886Z,99752.00
2023-02-18T11:09:46.521Z,99664.63
2023-02-18T11:12:22.553Z,99746.66
2023-02-18T11:15:04.920Z,99734.53
2023-02-18T11:17:38.014Z,99753.69
2023-02-18T11:20:31.654Z,99761.00
2023-02-18T11:23:16.448Z,99720.09
2023-02-18T11:25:56.923Z,99753.69
2023-02-18T11:28:33.871Z,99753.69
2023-02-18T11:31:05.323Z,99748.31
2023-02-18T11:33:39.443Z,99747.47
2023-02-18T11:36:20.689Z,99725.13
2023-02-18T11:38:52.495Z,99759.03
2023-02-18T11:41:23.526Z,99604.25
2023-02-18T11:43:53.864Z,99640.19
2023-02-18T11:46:24.997Z,99748.31
2023-02-18T11:48:55.790Z,99748.31
2023-02-18T11:51:29.626Z,99649.22
2023-02-18T11:54:05.051Z,99678.34
2023-02-18T11:56:37.170Z,99747.47
2023-02-18T11:59:07.524Z,99742.97
2023-02-18T12:01:48.151Z,99648.91
2023-02-18T12:04:20.126Z,99748.31
2023-02-18T12:06:54.816Z,99739.28
2023-02-18T12:09:31.285Z,99588.44
2023-02-18T12:12:03.678Z,99748.31
2023-02-18T12:14:33.936Z,99744.13
2023-02-18T12:17:40.971Z,99746.66
2023-02-18T12:20:38.281Z,99743.97
2023-02-18T12:23:16.930Z,99741.31
2023-02-18T12:25:54.934Z,99664.94
2023-02-18T12:28:39.812Z,99747.28
2023-02-18T12:31:31.230Z,99752.00
2023-02-18T12:34:23.379Z,99746.66
2023-02-18T12:37:09.455Z,99741.31
2023-02-18T12:39:53.265Z,99747.63
2023-02-18T12:42:36.551Z,99740.47
2023-02-18T12:45:24.825Z,99752.00
2023-02-18T12:48:27.739Z,99752.81
2023-02-18T12:51:21.182Z,99761.00
2023-02-18T12:54:07.157Z,99744.97
2023-02-18T12:56:54.685Z,99756.81
2023-02-18T12:59:42.757Z,99664.63
2023-02-18T13:02:30.589Z,99664.63
2023-02-18T13:05:12.758Z,99755.66
2023-02-18T13:07:59.126Z,99750.31
2023-02-18T13:11:05.034Z,99747.78
2023-02-18T13:13:36.983Z,99646.47
2023-02-18T13:16:15.942Z,99755.66
2023-02-18T13:19:00.863Z,99754.31
2023-02-18T13:21:31.150Z,99752.97
2023-02-18T13:24:04.032Z,99761.88
2023-02-18T13:26:38.176Z,99755.66
2023-02-18T13:29:24.448Z,99753.69
2023-02-18T13:32:11.003Z,99752.81
2023-02-18T13:34:47.121Z,99762.72
2023-02-18T13:37:23.350Z,99755.66
2023-02-18T13:39:54.776Z,99773.44
2023-02-18T13:42:35.248Z,99768.06
2023-02-18T13:45:29.861Z,99772.41
2023-02-18T13:47:59.346Z,99778.78
2023-02-18T13:50:38.108Z,99737.50
2023-02-18T13:53:30.967Z,99768.06
2023-02-18T13:56:09.754Z,99763.03
2023-02-18T13:58:45.638Z,99769.75
2023-02-18T14:01:25.690Z,99758.00
2023-02-18T14:03:57.434Z,99778.78
2023-02-18T14:06:27.566Z,99746.53
2023-02-18T14:09:26.691Z,99782.44
2023-02-18T14:11:58.938Z,99773.72
2023-02-18T14:14:40.912Z,99810.91
2023-02-18T14:17:34.669Z,99787.78
2023-02-18T14:20:48.410Z,99797.34
2023-02-18T14:23:45.607Z,99784.13
2023-02-18T14:26:25.596Z,99798.47
2023-02-18T14:29:00.124Z,99796.66
2023-02-18T14:31:46.345Z,99789.06
2023-02-18T14:34:53.814Z,99817.22
2023-02-18T14:37:46.425Z,99813.72
2023-02-18T14:40:47.116Z,99808.38
2023-02-18T14:43:32.152Z,99744.56
2023-02-18T14:46:20.005Z,99816.88
2023-02-18T14:49:05.885Z,99751.88
2023-02-18T14:51:36.942Z,99818.94
2023-02-18T14:54:07.884Z,99753.56
2023-02-18T14:56:54.570Z,99828.94
2023-02-18T14:59:26.372Z,99753.88
2023-02-18T15:01:57.463Z,99838.47
2023-02-18T15:04:29.562Z,99839.50
2023-02-18T15:07:02.930Z,99843.00
2023-02-18T15:09:31.843Z,99847.31
2023-02-18T15:12:05.017Z,99848.38
2023-02-18T15:14:36.176Z,99841.31
2023-02-18T15:17:06.175Z,99856.41
2023-02-18T15:19:42.046Z,99853.72
2023-02-18T15:22:18.717Z,99680.47
2023-02-18T15:24:47.446Z,99866.09
2023-02-18T15:27:18.954Z,99782.81
2023-02-18T15:29:52.089Z,99878.47
2023-02-18T15:32:22.378Z,99840.34
2023-02-18T15:34:55.775Z,99867.78
2023-02-18T15:37:24.524Z,99867.09
2023-02-18T15:39:53.766Z,99862.41
2023-02-18T15:42:31.305Z,99883.84
2023-02-18T15:45:05.116Z,99817.34
2023-02-18T15:47:34.685Z,99876.81
2023-02-18T15:50:10.584Z,99882.16
2023-02-18T15:52:43.129Z,99713.97
2023-02-18T15:55:17.698Z,99889.50
2023-02-18T15:57:51.824Z,99892.88
2023-02-18T16:00:23.794Z,99902.56
2023-02-18T16:02:57.622Z,99894.84
2023-02-18T16:05:34.587Z,99898.53
2023-02-18T16:08:07.521Z,99836.84
2023-02-18T16:10:47.468Z,99923.00
2023-02-18T16:13:19.726Z,99921.59
2023-02-18T16:15:51.817Z,99817.97
2023-02-18T16:18:31.756Z,99924.28
2023-02-18T16:21:10.088Z,99914.53
2023-02-18T16:23:46.005Z,99925.28
2023-02-18T16:26:28.145Z,99927.66
2023-02-18T16:29:02.189Z,99771.94
2023-02-18T16:31:30.759Z,99930.34
2023-02-18T16:33:59.884Z,99929.50
2023-02-18T16:36:31.176Z,99930.34
2023-02-18T16:39:02.601Z,99932.00
2023-02-18T16:41:31.352Z,99934.03
2023-02-18T16:43:59.836Z,99941.03
2023-02-18T16:46:31.661Z,99924.75
2023-02-18T16:49:00.676Z,99937.38
2023-02-18T16:51:36.452Z,99948.94
2023-02-18T16:54:07.891Z,99947.72
2023-02-18T16:56:37.386Z,99964.13
2023-02-18T16:59:08.103Z,99973.16
2023-02-18T17:01:41.441Z,99935.59
2023-02-18T17:04:15.184Z,99890.34
2023-02-18T17:06:47.376Z,99975.44
2023-02-18T17:09:18.550Z,99968.13
2023-02-18T17:11:48.751Z,99980.19
2023-02-18T17:14:22.085Z,99953.97
2023-02-18T17:16:53.297Z,99912.03
2023-02-18T17:19:23.629Z,99966.94
2023-02-18T17:21:57.645Z,100004.28
2023-02-18T17:24:25.838Z,99992.91
2023-02-18T17:26:53.942Z,100001.59
2023-02-18T17:29:22.035Z,100023.03
2023-02-18T17:31:58.133Z,99925.88
2023-02-18T17:34:31.453Z,100004.22
2023-02-18T17:37:01.246Z,100016.00
2023-02-18T17:39:31.517Z,99942.34
2023-02-18T17:41:59.834Z,99939.78
2023-02-18T17:44:29.276Z,100046.44
2023-02-18T17:46:57.439Z,100039.09
2023-02-18T17:49:26.715Z,99954.13
2023-02-18T17:51:57.235Z,100047.13
2023-02-18T17:54:29.608Z,100017.78
2023-02-18T17:56:58.464Z,100036.34
2023-02-18T17:59:28.549Z,100046.28
2023-02-18T18:01:57.029Z,100061.34
2023-02-18T18:04:25.418Z,100057.44
2023-02-18T18:06:56.443Z,100062.50
2023-02-18T18:09:24.911Z,100057.97
2023-02-18T18:11:55.226Z,100063.31
2023-02-18T18:14:24.531Z,100081.91
2023-02-18T18:16:52.580Z,100090.50
2023-02-18T18:19:20.939Z,100088.69
2023-02-18T18:21:49.040Z,100093.31
2023-02-18T18:24:17.235Z,100097.38
2023-02-18T18:26:45.718Z,100093.75
2023-02-18T18:29:15.229Z,100094.72
2023-02-18T18:31:43.340Z,100098.22
2023-02-18T18:34:11.484Z,100111.47
2023-02-18T18:36:39.516Z,100100.78
2023-02-18T18:39:07.563Z,100097.09
2023-02-18T18:41:36.066Z,100088.38
2023-02-18T18:44:04.931Z,100095.41
2023-02-18T18:46:34.421Z,100098.94
2023-02-18T18:49:02.736Z,100094.84
2023-02-18T18:51:33.336Z,100022.25
2023-02-18T18:54:01.420Z,100106.41
2023-02-18T18:56:29.533Z,100079.16
2023-02-18T18:58:57.848Z,100104.75
2023-02-18T19:01:27.629Z,99988.41
2023-02-18T19:03:57.334Z,99989.28
2023-02-18T19:06:25.785Z,100110.09
2023-02-18T19:08:53.901Z,100119.94
2023-02-18T19:11:21.954Z,100114.59
2023-02-18T19:13:50.392Z,100124.44
2023-02-18T19:16:22.389Z,100119.94
2023-02-18T19:18:50.516Z,100112.56
2023-02-18T19:21:20.213Z,100131.81
2023-02-18T19:23:48.497Z,100132.63
2023-02-18T19:26:17.664Z,100133.78
2023-02-18T19:28:46.529Z,100153.22
2023-02-18T19:31:15.180Z,100150.84
2023-02-18T19:33:45.721Z,100147.88
2023-02-18T19:36:14.892Z,100153.22
2023-02-18T19:38:45.612Z,100154.03
2023-02-18T19:41:15.518Z,100159.53
2023-02-18T19:43:46.642Z,100163.22
2023-02-18T19:46:16.836Z,100160.53
2023-02-18T19:48:45.046Z,100169.56
2023-02-18T19:51:14.649Z,100174.94
2023-02-18T19:53:44.219Z,100173.22
2023-02-18T19:56:12.284Z,100166.47
2023-02-18T19:58:41.280Z,100172.41
2023-02-18T20:01:13.023Z,100067.53
2023-02-18T20:03:41.193Z,100184.22
2023-02-18T20:06:16.278Z,100183.94
2023-02-18T20:08:46.119Z,100173.22
2023-02-18T20:11:14.539Z,100173.84
2023-02-18T20:13:43.147Z,100191.28
2023-02-18T20:16:11.774Z,100178.56
2023-02-18T20:18:39.926Z,100182.53
2023-02-18T20:21:10.847Z,100195.78
2023-02-18T20:23:39.108Z,100200.28
2023-02-18T20:26:09.801Z,100199.47
2023-02-18T20:28:38.068Z,100193.25
2023-02-18T20:31:07.467Z,100197.59
2023-02-18T20:33:35.682Z,100194.94
2023-02-18T20:36:05.290Z,100166.25
2023-02-18T20:38:33.495Z,100212.69
2023-02-18T20:41:05.366Z,100212.69
2023-02-18T20:43:34.951Z,100205.63
2023-02-18T20:46:04.409Z,100220.59
2023-02-18T20:48:32.916Z,100216.06
2023-02-18T20:51:06.059Z,100216.34
2023-02-18T20:53:36.159Z,100151.09
2023-02-18T20:56:06.514Z,100213.00
2023-02-18T20:58:37.067Z,100128.03
2023-02-18T21:01:10.156Z,100136.16
2023-02-18T21:03:39.854Z,100034.25
2023-02-18T21:06:10.841Z,100220.03
2023-02-18T21:08:40.815Z,100218.06
2023-02-18T21:11:11.585Z,100131.13
2023-02-18T21:13:41.736Z,100213.66
2023-02-18T21:16:11.287Z,100137.56
2023-02-18T21:18:40.037Z,100216.34
2023-02-18T21:21:10.686Z,100215.38
2023-02-18T21:23:39.930Z,100221.69
2023-02-18T21:26:11.269Z,100210.03
2023-02-18T21:28:41.493Z,100216.34
2023-02-18T21:31:17.004Z,100221.69
2023-02-18T21:33:45.387Z,100221.69
2023-02-18T21:36:14.318Z,100219.03
2023-02-18T21:38:43.145Z,100220.72
2023-02-18T21:41:11.994Z,100232.25
2023-02-18T21:43:41.583Z,100234.94
2023-02-18T21:46:11.779Z,100234.13
2023-02-18T21:48:57.504Z,100210.47
2023-02-18T21:51:43.277Z,100234.13
2023-02-18T21:54:11.663Z,100241.28
2023-02-18T21:56:39.857Z,100239.91
2023-02-18T21:59:09.389Z,100248.47
2023-02-18T22:01:37.901Z,100172.50
2023-02-18T22:04:06.821Z,100088.25
2023-02-18T22:06:35.084Z,100250.16
2023-02-18T22:09:04.100Z,100243.09
2023-02-18T22:11:34.436Z,100234.84
2023-02-18T22:14:02.863Z,100155.06
2023-02-18T22:16:32.439Z,100268.19
2023-02-18T22:19:00.511Z,100266.22
2023-02-18T22:21:28.861Z,100251.31
2023-02-18T22:23:57.036Z,100277.91
2023-02-18T22:26:25.270Z,100269.88
2023-02-18T22:28:54.615Z,100271.00
2023-02-18T22:31:24.012Z,100275.22
2023-02-18T22:33:55.498Z,100289.63
2023-02-18T22:36:25.211Z,100275.25
2023-02-18T22:38:54.135Z,100289.63
2023-02-18T22:41:24.573Z,100279.75
2023-02-18T22:43:55.671Z,100285.94
2023-02-18T22:46:24.252Z,100211.91
2023-02-18T22:48:54.153Z,100280.91
2023-02-18T22:51:25.196Z,100206.84
2023-02-18T22:53:54.371Z,100240.38
2023-02-18T22:56:23.742Z,100289.63
2023-02-18T22:58:53.136Z,100282.56
2023-02-18T23:01:22.323Z,100287.78
2023-02-18T23:03:51.437Z,100208.81
2023-02-18T23:06:22.050Z,100296.66
2023-02-18T23:08:51.041Z,100284.81
2023-02-18T23:11:21.302Z,100285.69
2023-02-18T23:14:10.562Z,100302.84
2023-02-18T23:16:52.697Z,100289.66
2023-02-18T23:19:21.027Z,100187.72
2023-02-18T23:21:50.622Z,100292.16
2023-02-18T23:24:18.863Z,100292.16
2023-02-18T23:26:47.106Z,100289.47
2023-02-18T23:29:15.669Z,100287.66
2023-02-18T23:31:44.149Z,100293.00
2023-02-18T23:34:15.275Z,100212.19
2023-02-18T23:36:44.877Z,100220.63
2023-02-18T23:39:18.545Z,100239.63
2023-02-18T23:41:46.785Z,100314.41
2023-02-18T23:44:20.997Z,100311.59
2023-02-18T23:46:49.617Z,100308.06
2023-02-18T23:49:19.255Z,100316.09
2023-02-18T23:51:48.417Z,100310.75
2023-02-18T23:54:18.727Z,100310.03
2023-02-18T23:56:47.163Z,100152.25
2023-02-18T23:59:15.602Z,100274.59
